sensor_id;sensor_type;location;lat;lon;timestamp;pressure;altitude;pressure_sealevel;temperature;humidity
498;BME280;39559;48.630;9.162;2022-09-14T00:01:12;96595.13;;;15.84;100.00
498;BME280;39559;48.630;9.162;2022-09-14T00:03:38;96598.34;;;15.77;100.00
498;BME280;39559;48.630;9.162;2022-09-14T00:06:06;96602.28;;;15.82;100.00
498;BME280;39559;48.630;9.162;2022-09-14T00:08:32;96605.59;;;15.84;100.00
498;BME280;39559;48.630;9.162;2022-09-14T00:11:03;96600.63;;;15.81;100.00
498;BME280;39559;48.630;9.162;2022-09-14T00:15:06;96582.63;;;15.77;100.00
498;BME280;39559;48.630;9.162;2022-09-14T00:17:32;96567.50;;;15.91;100.00
498;BME280;39559;48.630;9.162;2022-09-14T00:20:00;96559.53;;;15.93;100.00
498;BME280;39559;48.630;9.162;2022-09-14T00:22:26;96563.97;;;15.81;100.00
498;BME280;39559;48.630;9.162;2022-09-14T00:24:52;96556.22;;;15.80;100.00
498;BME280;39559;48.630;9.162;2022-09-14T00:27:17;96550.84;;;15.92;100.00
498;BME280;39559;48.630;9.162;2022-09-14T00:29:43;96546.44;;;15.93;100.00
498;BME280;39559;48.630;9.162;2022-09-14T00:32:08;96551.47;;;15.85;100.00
498;BME280;39559;48.630;9.162;2022-09-14T00:34:34;96551.47;;;15.85;100.00
498;BME280;39559;48.630;9.162;2022-09-14T00:39:02;96544.69;;;15.93;100.00
498;BME280;39559;48.630;9.162;2022-09-14T00:41:31;96532.88;;;15.88;100.00
498;BME280;39559;48.630;9.162;2022-09-14T00:46:24;96526.59;;;15.90;100.00
498;BME280;39559;48.630;9.162;2022-09-14T00:48:50;96519.44;;;15.92;100.00
498;BME280;39559;48.630;9.162;2022-09-14T00:51:18;96501.97;;;15.82;100.00
498;BME280;39559;48.630;9.162;2022-09-14T00:53:44;96508.25;;;15.90;100.00
498;BME280;39559;48.630;9.162;2022-09-14T00:56:11;96514.47;;;15.78;100.00
498;BME280;39559;48.630;9.162;2022-09-14T00:58:37;96519.22;;;15.62;100.00
498;BME280;39559;48.630;9.162;2022-09-14T01:02:57;96509.81;;;15.70;100.00
498;BME280;39559;48.630;9.162;2022-09-14T01:08:31;96494.09;;;15.82;100.00
498;BME280;39559;48.630;9.162;2022-09-14T01:11:31;96482.94;;;15.80;100.00
498;BME280;39559;48.630;9.162;2022-09-14T01:19:20;96538.63;;;15.82;100.00
498;BME280;39559;48.630;9.162;2022-09-14T01:21:49;96565.41;;;15.74;100.00
498;BME280;39559;48.630;9.162;2022-09-14T01:29:41;96549.31;;;15.45;100.00
498;BME280;39559;48.630;9.162;2022-09-14T01:32:17;96529.81;;;15.26;100.00
498;BME280;39559;48.630;9.162;2022-09-14T01:34:48;96517.31;;;15.19;100.00
498;BME280;39559;48.630;9.162;2022-09-14T01:37:56;96513.38;;;15.24;100.00
498;BME280;39559;48.630;9.162;2022-09-14T01:40:39;96521.09;;;15.37;100.00
498;BME280;39559;48.630;9.162;2022-09-14T01:43:27;96562.75;;;15.29;100.00
498;BME280;39559;48.630;9.162;2022-09-14T01:46:05;96570.69;;;15.27;100.00
498;BME280;39559;48.630;9.162;2022-09-14T01:50:55;96596.63;;;15.42;100.00
498;BME280;39559;48.630;9.162;2022-09-14T01:56:29;96583.22;;;15.46;100.00
498;BME280;39559;48.630;9.162;2022-09-14T01:59:23;96583.81;;;15.50;100.00
498;BME280;39559;48.630;9.162;2022-09-14T02:01:55;96585.94;;;15.56;100.00
498;BME280;39559;48.630;9.162;2022-09-14T02:04:47;96570.97;;;15.47;100.00
498;BME280;39559;48.630;9.162;2022-09-14T02:07:14;96566.31;;;15.50;100.00
498;BME280;39559;48.630;9.162;2022-09-14T02:09:43;96555.97;;;15.49;100.00
498;BME280;39559;48.630;9.162;2022-09-14T02:14:45;96561.69;;;15.54;100.00
498;BME280;39559;48.630;9.162;2022-09-14T02:17:12;96558.59;;;15.49;100.00
498;BME280;39559;48.630;9.162;2022-09-14T02:19:52;96558.81;;;15.46;100.00
498;BME280;39559;48.630;9.162;2022-09-14T02:22:19;96565.50;;;15.50;100.00
498;BME280;39559;48.630;9.162;2022-09-14T02:24:46;96572.88;;;15.56;100.00
498;BME280;39559;48.630;9.162;2022-09-14T02:27:12;96574.06;;;15.52;100.00
498;BME280;39559;48.630;9.162;2022-09-14T02:29:40;96568.81;;;15.52;100.00
498;BME280;39559;48.630;9.162;2022-09-14T02:35:29;96563.69;;;15.62;100.00
498;BME280;39559;48.630;9.162;2022-09-14T02:38:52;96560.00;;;15.53;100.00
498;BME280;39559;48.630;9.162;2022-09-14T02:47:12;96555.38;;;15.57;100.00
498;BME280;39559;48.630;9.162;2022-09-14T02:52:27;96583.09;;;15.70;100.00
498;BME280;39559;48.630;9.162;2022-09-14T02:55:06;96564.69;;;15.83;100.00
498;BME280;39559;48.630;9.162;2022-09-14T02:57:58;96566.94;;;15.99;100.00
498;BME280;39559;48.630;9.162;2022-09-14T03:02:37;96561.91;;;15.51;100.00
498;BME280;39559;48.630;9.162;2022-09-14T03:05:03;96556.91;;;15.48;100.00
498;BME280;39559;48.630;9.162;2022-09-14T03:07:29;96551.44;;;15.51;100.00
498;BME280;39559;48.630;9.162;2022-09-14T03:09:54;96545.50;;;15.49;100.00
498;BME280;39559;48.630;9.162;2022-09-14T03:12:20;96550.41;;;15.53;100.00
498;BME280;39559;48.630;9.162;2022-09-14T03:14:45;96555.38;;;15.57;100.00
498;BME280;39559;48.630;9.162;2022-09-14T03:17:11;96551.69;;;15.48;100.00
498;BME280;39559;48.630;9.162;2022-09-14T03:19:36;96562.63;;;15.53;100.00
498;BME280;39559;48.630;9.162;2022-09-14T03:22:02;96538.00;;;15.44;100.00
498;BME280;39559;48.630;9.162;2022-09-14T03:26:33;96544.53;;;15.39;100.00
498;BME280;39559;48.630;9.162;2022-09-14T03:29:05;96529.56;;;15.74;100.00
498;BME280;39559;48.630;9.162;2022-09-14T03:31:32;96533.84;;;15.53;100.00
498;BME280;39559;48.630;9.162;2022-09-14T03:34:00;96511.72;;;15.57;100.00
498;BME280;39559;48.630;9.162;2022-09-14T03:36:28;96519.81;;;15.65;100.00
498;BME280;39559;48.630;9.162;2022-09-14T03:38:57;96518.59;;;15.69;100.00
498;BME280;39559;48.630;9.162;2022-09-14T03:41:23;96514.06;;;15.71;100.00
498;BME280;39559;48.630;9.162;2022-09-14T03:43:52;96525.63;;;15.80;100.00
498;BME280;39559;48.630;9.162;2022-09-14T03:46:23;96526.97;;;15.74;100.00
498;BME280;39559;48.630;9.162;2022-09-14T03:50:31;96518.38;;;15.72;100.00
498;BME280;39559;48.630;9.162;2022-09-14T03:52:57;96508.50;;;15.65;100.00
498;BME280;39559;48.630;9.162;2022-09-14T03:55:23;96503.28;;;15.53;100.00
498;BME280;39559;48.630;9.162;2022-09-14T03:57:53;96492.47;;;15.47;100.00
498;BME280;39559;48.630;9.162;2022-09-14T04:00:19;96495.06;;;15.58;100.00
498;BME280;39559;48.630;9.162;2022-09-14T04:02:44;96486.75;;;15.53;100.00
498;BME280;39559;48.630;9.162;2022-09-14T04:05:10;96472.13;;;15.50;100.00
498;BME280;39559;48.630;9.162;2022-09-14T04:07:36;96461.06;;;15.47;100.00
498;BME280;39559;48.630;9.162;2022-09-14T04:10:02;96481.53;;;15.42;100.00
498;BME280;39559;48.630;9.162;2022-09-14T04:14:26;96480.31;;;15.46;100.00
498;BME280;39559;48.630;9.162;2022-09-14T04:16:51;96476.28;;;15.76;100.00
498;BME280;39559;48.630;9.162;2022-09-14T04:19:17;96470.06;;;15.77;100.00
498;BME280;39559;48.630;9.162;2022-09-14T04:21:42;96466.53;;;15.66;100.00
498;BME280;39559;48.630;9.162;2022-09-14T04:24:10;96466.63;;;15.65;100.00
498;BME280;39559;48.630;9.162;2022-09-14T04:26:38;96474.38;;;15.66;100.00
498;BME280;39559;48.630;9.162;2022-09-14T04:29:03;96470.66;;;15.69;100.00
498;BME280;39559;48.630;9.162;2022-09-14T04:31:31;96477.44;;;15.71;100.00
498;BME280;39559;48.630;9.162;2022-09-14T04:33:57;96477.31;;;15.73;100.00
498;BME280;39559;48.630;9.162;2022-09-14T04:38:21;96479.03;;;15.74;100.00
498;BME280;39559;48.630;9.162;2022-09-14T04:40:47;96482.47;;;15.74;100.00
498;BME280;39559;48.630;9.162;2022-09-14T04:43:12;96478.63;;;15.67;100.00
498;BME280;39559;48.630;9.162;2022-09-14T04:45:38;96489.94;;;15.68;100.00
498;BME280;39559;48.630;9.162;2022-09-14T04:48:05;96484.25;;;15.74;100.00
498;BME280;39559;48.630;9.162;2022-09-14T04:50:31;96493.75;;;15.75;100.00
498;BME280;39559;48.630;9.162;2022-09-14T04:52:57;96492.19;;;15.72;100.00
498;BME280;39559;48.630;9.162;2022-09-14T04:55:22;96494.50;;;15.77;100.00
498;BME280;39559;48.630;9.162;2022-09-14T04:57:49;96503.88;;;15.80;100.00
498;BME280;39559;48.630;9.162;2022-09-14T05:02:17;96495.91;;;15.81;100.00
498;BME280;39559;48.630;9.162;2022-09-14T05:04:43;96486.97;;;15.84;100.00
498;BME280;39559;48.630;9.162;2022-09-14T05:07:08;96484.84;;;15.78;100.00
498;BME280;39559;48.630;9.162;2022-09-14T05:09:34;96475.19;;;15.78;100.00
498;BME280;39559;48.630;9.162;2022-09-14T05:12:00;96479.34;;;15.81;100.00
498;BME280;39559;48.630;9.162;2022-09-14T05:14:25;96480.56;;;15.77;100.00
498;BME280;39559;48.630;9.162;2022-09-14T05:16:51;96482.09;;;15.79;100.00
498;BME280;39559;48.630;9.162;2022-09-14T05:19:17;96482.09;;;15.79;100.00
498;BME280;39559;48.630;9.162;2022-09-14T05:21:43;96493.63;;;15.77;100.00
498;BME280;39559;48.630;9.162;2022-09-14T05:26:16;96495.16;;;15.90;100.00
498;BME280;39559;48.630;9.162;2022-09-14T05:28:41;96498.69;;;16.01;100.00
498;BME280;39559;48.630;9.162;2022-09-14T05:31:09;96496.53;;;16.17;100.00
498;BME280;39559;48.630;9.162;2022-09-14T05:33:36;96489.78;;;16.36;100.00
498;BME280;39559;48.630;9.162;2022-09-14T05:36:06;96490.19;;;16.52;100.00
498;BME280;39559;48.630;9.162;2022-09-14T05:38:34;96484.22;;;16.71;100.00
498;BME280;39559;48.630;9.162;2022-09-14T05:41:00;96486.47;;;16.76;100.00
498;BME280;39559;48.630;9.162;2022-09-14T05:43:27;96481.31;;;16.85;100.00
498;BME280;39559;48.630;9.162;2022-09-14T05:45:53;96479.72;;;16.94;100.00
498;BME280;39559;48.630;9.162;2022-09-14T05:50:10;96491.28;;;16.92;100.00
498;BME280;39559;48.630;9.162;2022-09-14T05:52:36;96475.28;;;16.95;100.00
498;BME280;39559;48.630;9.162;2022-09-14T05:55:02;96472.31;;;16.46;100.00
498;BME280;39559;48.630;9.162;2022-09-14T05:57:27;96477.91;;;16.20;100.00
498;BME280;39559;48.630;9.162;2022-09-14T05:59:53;96474.25;;;16.11;100.00
498;BME280;39559;48.630;9.162;2022-09-14T06:02:18;96485.19;;;16.17;100.00
498;BME280;39559;48.630;9.162;2022-09-14T06:04:45;96489.03;;;16.12;100.00
498;BME280;39559;48.630;9.162;2022-09-14T06:07:10;96492.69;;;16.21;100.00
498;BME280;39559;48.630;9.162;2022-09-14T06:09:36;96489.31;;;16.30;100.00
498;BME280;39559;48.630;9.162;2022-09-14T06:14:09;96491.47;;;16.58;100.00
498;BME280;39559;48.630;9.162;2022-09-14T06:16:34;96499.97;;;16.71;100.00
498;BME280;39559;48.630;9.162;2022-09-14T06:19:00;96501.03;;;17.01;100.00
498;BME280;39559;48.630;9.162;2022-09-14T06:21:33;96502.59;;;17.13;100.00
498;BME280;39559;48.630;9.162;2022-09-14T06:23:59;96497.81;;;17.28;100.00
498;BME280;39559;48.630;9.162;2022-09-14T06:26:24;96493.69;;;17.35;100.00
498;BME280;39559;48.630;9.162;2022-09-14T06:28:51;96502.88;;;17.41;100.00
498;BME280;39559;48.630;9.162;2022-09-14T06:31:17;96504.94;;;17.47;100.00
498;BME280;39559;48.630;9.162;2022-09-14T06:33:47;96495.59;;;17.54;100.00
498;BME280;39559;48.630;9.162;2022-09-14T06:38:05;96502.91;;;17.60;100.00
498;BME280;39559;48.630;9.162;2022-09-14T06:40:30;96502.53;;;17.65;100.00
498;BME280;39559;48.630;9.162;2022-09-14T06:42:56;96501.84;;;17.73;100.00
498;BME280;39559;48.630;9.162;2022-09-14T06:45:28;96496.94;;;17.89;100.00
498;BME280;39559;48.630;9.162;2022-09-14T06:47:54;96497.25;;;17.96;100.00
498;BME280;39559;48.630;9.162;2022-09-14T06:50:19;96491.16;;;17.95;100.00
498;BME280;39559;48.630;9.162;2022-09-14T06:52:45;96494.50;;;18.07;100.00
498;BME280;39559;48.630;9.162;2022-09-14T06:55:10;96498.50;;;18.11;100.00
498;BME280;39559;48.630;9.162;2022-09-14T06:57:36;96488.38;;;17.97;100.00
498;BME280;39559;48.630;9.162;2022-09-14T07:02:01;96486.19;;;18.02;100.00
498;BME280;39559;48.630;9.162;2022-09-14T07:04:27;96497.25;;;18.06;100.00
498;BME280;39559;48.630;9.162;2022-09-14T07:06:52;96497.13;;;18.07;100.00
498;BME280;39559;48.630;9.162;2022-09-14T07:09:18;96497.13;;;18.07;100.00
498;BME280;39559;48.630;9.162;2022-09-14T07:11:44;96499.75;;;18.17;100.00
498;BME280;39559;48.630;9.162;2022-09-14T07:14:10;96501.16;;;18.21;100.00
498;BME280;39559;48.630;9.162;2022-09-14T07:16:37;96509.72;;;18.33;100.00
498;BME280;39559;48.630;9.162;2022-09-14T07:19:05;96508.06;;;18.41;100.00
498;BME280;39559;48.630;9.162;2022-09-14T07:21:32;96520.53;;;18.49;100.00
498;BME280;39559;48.630;9.162;2022-09-14T07:26:19;96518.44;;;18.53;100.00
498;BME280;39559;48.630;9.162;2022-09-14T07:28:47;96508.19;;;18.50;100.00
498;BME280;39559;48.630;9.162;2022-09-14T07:31:19;96507.78;;;18.54;100.00
498;BME280;39559;48.630;9.162;2022-09-14T07:33:51;96513.31;;;18.51;100.00
498;BME280;39559;48.630;9.162;2022-09-14T07:36:17;96517.50;;;18.54;100.00
498;BME280;39559;48.630;9.162;2022-09-14T07:38:43;96512.34;;;18.62;100.00
498;BME280;39559;48.630;9.162;2022-09-14T07:41:08;96511.94;;;18.76;100.00
498;BME280;39559;48.630;9.162;2022-09-14T07:43:34;96511.94;;;18.86;100.00
498;BME280;39559;48.630;9.162;2022-09-14T07:46:04;96525.63;;;18.99;100.00
498;BME280;39559;48.630;9.162;2022-09-14T07:49:53;96533.47;;;19.19;100.00
498;BME280;39559;48.630;9.162;2022-09-14T07:52:19;96540.78;;;19.35;100.00
498;BME280;39559;48.630;9.162;2022-09-14T07:54:44;96534.78;;;19.43;100.00
498;BME280;39559;48.630;9.162;2022-09-14T07:57:11;96528.97;;;19.39;100.00
498;BME280;39559;48.630;9.162;2022-09-14T07:59:36;96524.09;;;19.54;100.00
498;BME280;39559;48.630;9.162;2022-09-14T08:02:05;96527.84;;;19.51;100.00
498;BME280;39559;48.630;9.162;2022-09-14T08:04:33;96529.22;;;19.55;100.00
498;BME280;39559;48.630;9.162;2022-09-14T08:06:59;96531.34;;;19.70;100.00
498;BME280;39559;48.630;9.162;2022-09-14T08:09:25;96537.81;;;19.58;100.00
498;BME280;39559;48.630;9.162;2022-09-14T08:13:51;96540.81;;;19.63;100.00
498;BME280;39559;48.630;9.162;2022-09-14T08:16:17;96535.25;;;19.75;100.00
498;BME280;39559;48.630;9.162;2022-09-14T08:18:43;96542.44;;;19.83;100.00
498;BME280;39559;48.630;9.162;2022-09-14T08:21:14;96553.38;;;19.88;100.00
498;BME280;39559;48.630;9.162;2022-09-14T08:23:41;96570.75;;;19.99;100.00
498;BME280;39559;48.630;9.162;2022-09-14T08:26:13;96581.56;;;20.06;100.00
498;BME280;39559;48.630;9.162;2022-09-14T08:28:40;96586.25;;;20.12;100.00
498;BME280;39559;48.630;9.162;2022-09-14T08:31:11;96582.19;;;20.18;100.00
498;BME280;39559;48.630;9.162;2022-09-14T08:33:39;96575.44;;;20.33;100.00
498;BME280;39559;48.630;9.162;2022-09-14T08:37:46;96582.94;;;20.28;100.00
498;BME280;39559;48.630;9.162;2022-09-14T08:40:12;96589.94;;;20.19;100.00
498;BME280;39559;48.630;9.162;2022-09-14T08:42:37;96599.59;;;20.10;100.00
498;BME280;39559;48.630;9.162;2022-09-14T08:45:04;96597.09;;;20.09;100.00
498;BME280;39559;48.630;9.162;2022-09-14T08:47:34;96599.53;;;20.20;100.00
498;BME280;39559;48.630;9.162;2022-09-14T08:52:46;96593.25;;;20.49;100.00
498;BME280;39559;48.630;9.162;2022-09-14T08:55:29;96583.59;;;20.58;100.00
498;BME280;39559;48.630;9.162;2022-09-14T09:04:28;96590.19;;;21.34;100.00
498;BME280;39559;48.630;9.162;2022-09-14T09:07:17;96591.03;;;21.34;100.00
498;BME280;39559;48.630;9.162;2022-09-14T09:09:48;96591.53;;;21.56;100.00
498;BME280;39559;48.630;9.162;2022-09-14T09:12:17;96594.56;;;21.69;100.00
498;BME280;39559;48.630;9.162;2022-09-14T09:14:49;96588.91;;;21.56;100.00
498;BME280;39559;48.630;9.162;2022-09-14T09:17:41;96597.22;;;21.69;100.00
498;BME280;39559;48.630;9.162;2022-09-14T09:20:16;96592.97;;;21.84;100.00
498;BME280;39559;48.630;9.162;2022-09-14T09:28:21;96583.66;;;21.98;100.00
498;BME280;39559;48.630;9.162;2022-09-14T09:30:48;96578.28;;;22.24;100.00
498;BME280;39559;48.630;9.162;2022-09-14T09:33:20;96579.53;;;22.47;100.00
498;BME280;39559;48.630;9.162;2022-09-14T09:35:48;96572.59;;;22.46;100.00
498;BME280;39559;48.630;9.162;2022-09-14T09:38:16;96566.97;;;22.57;100.00
498;BME280;39559;48.630;9.162;2022-09-14T09:40:49;96568.81;;;22.56;100.00
498;BME280;39559;48.630;9.162;2022-09-14T09:43:19;96550.97;;;22.67;100.00
498;BME280;39559;48.630;9.162;2022-09-14T09:45:51;96544.00;;;22.74;100.00
498;BME280;39559;48.630;9.162;2022-09-14T09:49:35;96541.03;;;22.77;100.00
498;BME280;39559;48.630;9.162;2022-09-14T09:52:14;96532.41;;;22.91;100.00
498;BME280;39559;48.630;9.162;2022-09-14T09:54:59;96526.94;;;23.01;100.00
498;BME280;39559;48.630;9.162;2022-09-14T09:57:35;96529.47;;;23.11;100.00
498;BME280;39559;48.630;9.162;2022-09-14T10:00:10;96521.13;;;23.47;100.00
498;BME280;39559;48.630;9.162;2022-09-14T10:02:42;96524.38;;;23.65;100.00
498;BME280;39559;48.630;9.162;2022-09-14T10:10:22;96525.06;;;23.51;100.00
498;BME280;39559;48.630;9.162;2022-09-14T10:13:32;96505.06;;;23.40;100.00
498;BME280;39559;48.630;9.162;2022-09-14T10:16:14;96498.47;;;23.36;100.00
498;BME280;39559;48.630;9.162;2022-09-14T10:18:49;96490.25;;;23.62;100.00
498;BME280;39559;48.630;9.162;2022-09-14T10:21:17;96506.41;;;23.75;100.00
498;BME280;39559;48.630;9.162;2022-09-14T10:23:43;96490.69;;;23.34;100.00
498;BME280;39559;48.630;9.162;2022-09-14T10:28:35;96467.88;;;23.17;100.00
498;BME280;39559;48.630;9.162;2022-09-14T10:33:53;96458.44;;;23.14;100.00
498;BME280;39559;48.630;9.162;2022-09-14T10:40:13;96462.56;;;23.17;100.00
498;BME280;39559;48.630;9.162;2022-09-14T10:45:57;96454.56;;;23.33;100.00
498;BME280;39559;48.630;9.162;2022-09-14T10:57:01;96408.97;;;23.46;100.00
498;BME280;39559;48.630;9.162;2022-09-14T11:04:19;96417.50;;;23.65;100.00
498;BME280;39559;48.630;9.162;2022-09-14T11:06:52;96417.81;;;24.01;100.00
498;BME280;39559;48.630;9.162;2022-09-14T11:12:03;96409.94;;;24.16;99.61
498;BME280;39559;48.630;9.162;2022-09-14T11:14:42;96411.91;;;24.37;95.35
498;BME280;39559;48.630;9.162;2022-09-14T11:25:45;96408.78;;;24.33;93.31
498;BME280;39559;48.630;9.162;2022-09-14T11:28:22;96405.03;;;23.82;91.89
498;BME280;39559;48.630;9.162;2022-09-14T11:31:06;96404.00;;;23.83;94.04
498;BME280;39559;48.630;9.162;2022-09-14T11:33:39;96402.31;;;23.90;92.11
498;BME280;39559;48.630;9.162;2022-09-14T11:36:18;96394.59;;;23.80;97.50
498;BME280;39559;48.630;9.162;2022-09-14T11:41:42;96393.69;;;23.96;90.81
498;BME280;39559;48.630;9.162;2022-09-14T11:44:19;96401.66;;;23.88;92.17
498;BME280;39559;48.630;9.162;2022-09-14T11:52:32;96402.88;;;23.46;87.74
498;BME280;39559;48.630;9.162;2022-09-14T11:54:59;96397.59;;;23.37;88.83
498;BME280;39559;48.630;9.162;2022-09-14T11:57:29;96399.72;;;23.42;91.02
498;BME280;39559;48.630;9.162;2022-09-14T12:00:00;96400.91;;;23.40;91.77
498;BME280;39559;48.630;9.162;2022-09-14T12:25:29;96422.19;;;23.23;91.26
498;BME280;39559;48.630;9.162;2022-09-14T12:27:55;96426.84;;;23.13;90.54
498;BME280;39559;48.630;9.162;2022-09-14T12:37:30;96446.19;;;22.97;93.37
498;BME280;39559;48.630;9.162;2022-09-14T12:40:49;96462.13;;;22.64;99.48
498;BME280;39559;48.630;9.162;2022-09-14T12:42:56;96469.56;;;22.36;100.00
498;BME280;39559;48.630;9.162;2022-09-14T12:45:47;96480.22;;;22.10;100.00
498;BME280;39559;48.630;9.162;2022-09-14T12:56:31;96502.09;;;21.08;100.00
498;BME280;39559;48.630;9.162;2022-09-14T13:01:03;96493.41;;;20.98;100.00
498;BME280;39559;48.630;9.162;2022-09-14T13:06:01;96507.56;;;20.71;100.00
498;BME280;39559;48.630;9.162;2022-09-14T13:08:27;96512.09;;;20.61;100.00
498;BME280;39559;48.630;9.162;2022-09-14T13:10:52;96514.34;;;20.38;100.00
498;BME280;39559;48.630;9.162;2022-09-14T13:13:21;96512.53;;;20.20;100.00
498;BME280;39559;48.630;9.162;2022-09-14T13:15:54;96520.41;;;20.02;100.00
498;BME280;39559;48.630;9.162;2022-09-14T13:20:54;96515.41;;;19.71;100.00
498;BME280;39559;48.630;9.162;2022-09-14T13:24:47;96509.59;;;19.40;100.00
498;BME280;39559;48.630;9.162;2022-09-14T13:27:26;96502.44;;;19.23;100.00
498;BME280;39559;48.630;9.162;2022-09-14T13:30:22;96499.16;;;19.11;100.00
498;BME280;39559;48.630;9.162;2022-09-14T13:32:50;96490.44;;;19.10;100.00
498;BME280;39559;48.630;9.162;2022-09-14T13:35:29;96495.56;;;19.12;100.00
498;BME280;39559;48.630;9.162;2022-09-14T13:37:58;96496.94;;;19.16;100.00
498;BME280;39559;48.630;9.162;2022-09-14T13:40:27;96486.50;;;19.24;100.00
498;BME280;39559;48.630;9.162;2022-09-14T13:42:55;96486.34;;;19.26;100.00
498;BME280;39559;48.630;9.162;2022-09-14T13:45:21;96495.66;;;19.20;100.00
498;BME280;39559;48.630;9.162;2022-09-14T13:48:39;96494.00;;;19.19;100.00
498;BME280;39559;48.630;9.162;2022-09-14T13:51:06;96484.72;;;19.25;100.00
498;BME280;39559;48.630;9.162;2022-09-14T13:53:44;96478.47;;;19.26;100.00
498;BME280;39559;48.630;9.162;2022-09-14T13:56:29;96478.38;;;19.17;100.00
498;BME280;39559;48.630;9.162;2022-09-14T13:59:22;96480.59;;;19.12;100.00
498;BME280;39559;48.630;9.162;2022-09-14T14:02:11;96466.31;;;19.15;100.00
498;BME280;39559;48.630;9.162;2022-09-14T14:04:38;96464.09;;;19.20;100.00
498;BME280;39559;48.630;9.162;2022-09-14T14:07:14;96475.41;;;19.30;100.00
498;BME280;39559;48.630;9.162;2022-09-14T14:09:51;96467.19;;;19.43;100.00
498;BME280;39559;48.630;9.162;2022-09-14T14:12:36;96465.97;;;19.37;100.00
498;BME280;39559;48.630;9.162;2022-09-14T14:15:26;96459.69;;;19.38;100.00
498;BME280;39559;48.630;9.162;2022-09-14T14:17:51;96475.94;;;19.34;100.00
498;BME280;39559;48.630;9.162;2022-09-14T14:25:36;96472.72;;;19.40;100.00
498;BME280;39559;48.630;9.162;2022-09-14T14:28:12;96467.19;;;19.33;100.00
498;BME280;39559;48.630;9.162;2022-09-14T14:30:39;96483.72;;;19.26;100.00
498;BME280;39559;48.630;9.162;2022-09-14T14:33:11;96493.16;;;19.18;100.00
498;BME280;39559;48.630;9.162;2022-09-14T14:36:30;96515.50;;;19.14;100.00
498;BME280;39559;48.630;9.162;2022-09-14T14:38:56;96525.47;;;19.11;100.00
498;BME280;39559;48.630;9.162;2022-09-14T14:41:22;96532.53;;;19.10;100.00
498;BME280;39559;48.630;9.162;2022-09-14T14:43:48;96527.00;;;19.04;100.00
498;BME280;39559;48.630;9.162;2022-09-14T14:46:15;96524.28;;;18.86;100.00
498;BME280;39559;48.630;9.162;2022-09-14T14:48:41;96516.91;;;18.79;100.00
498;BME280;39559;48.630;9.162;2022-09-14T14:51:11;96520.78;;;18.66;100.00
498;BME280;39559;48.630;9.162;2022-09-14T14:53:39;96523.69;;;18.33;100.00
498;BME280;39559;48.630;9.162;2022-09-14T14:56:04;96525.75;;;18.20;100.00
498;BME280;39559;48.630;9.162;2022-09-14T15:00:24;96519.66;;;18.00;100.00
498;BME280;39559;48.630;9.162;2022-09-14T15:02:50;96521.03;;;17.94;100.00
498;BME280;39559;48.630;9.162;2022-09-14T15:05:16;96512.78;;;17.78;100.00
498;BME280;39559;48.630;9.162;2022-09-14T15:07:42;96502.41;;;17.67;100.00
498;BME280;39559;48.630;9.162;2022-09-14T15:10:12;96509.16;;;17.59;100.00
498;BME280;39559;48.630;9.162;2022-09-14T15:12:38;96496.28;;;17.56;100.00
498;BME280;39559;48.630;9.162;2022-09-14T15:15:04;96496.09;;;17.48;100.00
498;BME280;39559;48.630;9.162;2022-09-14T15:17:30;96496.50;;;17.43;100.00
498;BME280;39559;48.630;9.162;2022-09-14T15:19:55;96495.63;;;17.33;100.00
498;BME280;39559;48.630;9.162;2022-09-14T15:24:18;96499.50;;;17.29;100.00
498;BME280;39559;48.630;9.162;2022-09-14T15:26:44;96487.06;;;17.31;100.00
498;BME280;39559;48.630;9.162;2022-09-14T15:29:10;96472.34;;;17.50;100.00
498;BME280;39559;48.630;9.162;2022-09-14T15:31:42;96467.00;;;17.61;100.00
498;BME280;39559;48.630;9.162;2022-09-14T15:34:07;96463.03;;;17.67;100.00
498;BME280;39559;48.630;9.162;2022-09-14T15:36:44;96453.72;;;17.62;100.00
498;BME280;39559;48.630;9.162;2022-09-14T15:39:19;96443.22;;;17.62;100.00
498;BME280;39559;48.630;9.162;2022-09-14T15:41:45;96422.91;;;17.45;100.00
498;BME280;39559;48.630;9.162;2022-09-14T15:44:11;96421.09;;;17.55;100.00
498;BME280;39559;48.630;9.162;2022-09-14T15:48:16;96413.28;;;17.75;100.00
498;BME280;39559;48.630;9.162;2022-09-14T15:50:45;96417.13;;;17.80;100.00
498;BME280;39559;48.630;9.162;2022-09-14T15:53:12;96423.09;;;17.82;100.00
498;BME280;39559;48.630;9.162;2022-09-14T15:55:42;96409.81;;;17.74;100.00
498;BME280;39559;48.630;9.162;2022-09-14T15:58:09;96402.63;;;17.76;100.00
498;BME280;39559;48.630;9.162;2022-09-14T16:00:35;96402.06;;;17.82;100.00
498;BME280;39559;48.630;9.162;2022-09-14T16:03:02;96393.97;;;17.86;100.00
498;BME280;39559;48.630;9.162;2022-09-14T16:05:29;96384.16;;;17.97;100.00
498;BME280;39559;48.630;9.162;2022-09-14T16:07:56;96371.28;;;17.94;100.00
498;BME280;39559;48.630;9.162;2022-09-14T16:12:10;96372.97;;;18.05;100.00
498;BME280;39559;48.630;9.162;2022-09-14T16:14:36;96361.19;;;17.90;100.00
498;BME280;39559;48.630;9.162;2022-09-14T16:17:02;96350.97;;;17.96;100.00
498;BME280;39559;48.630;9.162;2022-09-14T16:19:28;96329.13;;;17.96;100.00
498;BME280;39559;48.630;9.162;2022-09-14T16:21:54;96336.19;;;18.05;100.00
498;BME280;39559;48.630;9.162;2022-09-14T16:24:21;96342.94;;;17.98;100.00
498;BME280;39559;48.630;9.162;2022-09-14T16:26:47;96348.06;;;17.99;100.00
498;BME280;39559;48.630;9.162;2022-09-14T16:29:14;96358.72;;;17.98;100.00
498;BME280;39559;48.630;9.162;2022-09-14T16:31:41;96359.13;;;17.93;100.00
498;BME280;39559;48.630;9.162;2022-09-14T16:36:05;96347.38;;;17.97;100.00
498;BME280;39559;48.630;9.162;2022-09-14T16:38:31;96354.97;;;18.00;100.00
498;BME280;39559;48.630;9.162;2022-09-14T16:40:58;96378.91;;;18.07;100.00
498;BME280;39559;48.630;9.162;2022-09-14T16:43:24;96389.81;;;18.22;100.00
498;BME280;39559;48.630;9.162;2022-09-14T16:46:06;96393.13;;;18.34;100.00